Time;durP1;ratioP1;P1;durP2;ratioP2;P2;SDS_P1;SDS_P2;PMS_P1;PMS_P2;Temp;Humidity;BMP_temperature;BMP_pressure;BME280_temperature;BME280_humidity;BME280_pressure;Samples;Min_cycle;Max_cycle;Signal;HPM_P1;HPM_P2
2022/08/27 00:00:17;;;;;;;8.82;2.30;;;;;;;;;;4985089;28;20411;-73
2022/08/27 00:02:43;;;;;;;7.05;2.42;;;;;;;;;;4983696;28;20030;-72
2022/08/27 00:05:09;;;;;;;8.60;2.90;;;;;;;;;;4985788;28;20034;-70
2022/08/27 00:07:36;;;;;;;10.57;3.42;;;;;;;;;;4986378;28;20034;-73
2022/08/27 00:10:02;;;;;;;7.38;2.70;;;;;;;;;;4987027;28;20476;-72
2022/08/27 00:12:29;;;;;;;11.85;3.30;;;;;;;;;;4988951;28;20105;-74
2022/08/27 00:14:55;;;;;;;9.25;2.80;;;;;;;;;;4987645;28;20104;-70
2022/08/27 00:17:21;;;;;;;11.35;2.50;;;;;;;;;;4986576;28;20027;-72
2022/08/27 00:19:47;;;;;;;11.02;2.40;;;;;;;;;;4984102;28;20022;-72
2022/08/27 00:22:13;;;;;;;8.63;2.08;;;;;;;;;;4988132;28;20389;-72
2022/08/27 00:24:39;;;;;;;10.20;2.72;;;;;;;;;;4985980;28;20081;-71
2022/08/27 00:27:05;;;;;;;6.38;2.30;;;;;;;;;;4987379;28;20027;-71
2022/08/27 00:29:31;;;;;;;10.70;3.10;;;;;;;;;;4965959;28;20677;-72
2022/08/27 00:31:58;;;;;;;10.07;2.30;;;;;;;;;;4982959;28;20480;-71
2022/08/27 00:34:24;;;;;;;6.47;2.25;;;;;;;;;;4984405;28;20031;-71
2022/08/27 00:36:52;;;;;;;10.18;2.60;;;;;;;;;;4986823;28;20042;-73
2022/08/27 00:39:18;;;;;;;8.57;2.53;;;;;;;;;;4987051;28;20173;-72
2022/08/27 00:41:44;;;;;;;10.45;2.70;;;;;;;;;;4983686;28;20069;-72
2022/08/27 00:44:11;;;;;;;7.88;2.35;;;;;;;;;;4983103;28;20053;-73
2022/08/27 00:46:48;;;;;;;8.07;2.03;;;;;;;;;;4983210;28;20038;-72
2022/08/27 00:49:18;;;;;;;9.30;3.05;;;;;;;;;;4981142;28;20034;-72
2022/08/27 00:51:49;;;;;;;7.32;2.50;;;;;;;;;;4985916;28;20046;-72
2022/08/27 00:54:17;;;;;;;6.15;2.40;;;;;;;;;;4986157;28;20014;-72
2022/08/27 00:56:43;;;;;;;8.48;2.50;;;;;;;;;;4970106;28;20023;-72
2022/08/27 00:59:10;;;;;;;9.70;2.95;;;;;;;;;;4986574;28;20046;-72
2022/08/27 01:02:17;;;;;;;8.18;2.50;;;;;;;;;;4982455;28;20384;-72
2022/08/27 01:04:23;;;;;;;6.57;2.70;;;;;;;;;;4984059;28;20030;-72
2022/08/27 01:06:49;;;;;;;6.90;2.72;;;;;;;;;;4987684;28;20038;-72
2022/08/27 01:09:16;;;;;;;9.05;3.08;;;;;;;;;;4983446;28;20034;-71
2022/08/27 01:11:43;;;;;;;8.75;3.08;;;;;;;;;;4984306;28;20052;-70
2022/08/27 01:14:10;;;;;;;9.50;3.40;;;;;;;;;;4984496;28;20353;-72
2022/08/27 01:16:38;;;;;;;10.02;3.78;;;;;;;;;;4966929;28;20388;-71
2022/08/27 01:19:10;;;;;;;12.50;3.90;;;;;;;;;;4985960;28;20034;-72
2022/08/27 01:21:41;;;;;;;8.75;3.55;;;;;;;;;;4984248;28;20026;-71
2022/08/27 01:24:07;;;;;;;;;;;;;;;;;;4985400;28;20036;-71
2022/08/27 01:26:33;;;;;;;6.53;3.25;;;;;;;;;;4985959;28;20492;-73
2022/08/27 01:28:59;;;;;;;9.93;3.30;;;;;;;;;;4983528;28;20042;-73
2022/08/27 01:31:28;;;;;;;9.02;2.88;;;;;;;;;;4986945;28;20364;-71
2022/08/27 01:33:58;;;;;;;11.18;2.95;;;;;;;;;;4982263;28;20026;-71
2022/08/27 01:36:25;;;;;;;7.05;3.00;;;;;;;;;;4983119;28;20045;-71
2022/08/27 01:38:51;;;;;;;10.05;3.58;;;;;;;;;;4984336;28;20117;-71
2022/08/27 01:41:17;;;;;;;9.57;3.10;;;;;;;;;;4968999;28;20121;-70
2022/08/27 01:43:44;;;;;;;7.85;3.08;;;;;;;;;;4982289;28;20582;-71
2022/08/27 01:46:10;;;;;;;8.88;2.75;;;;;;;;;;4980633;28;20058;-71
2022/08/27 01:48:36;;;;;;;6.80;2.72;;;;;;;;;;4981701;28;20030;-70
2022/08/27 01:51:03;;;;;;;13.65;3.45;;;;;;;;;;4985441;28;20547;-70
2022/08/27 01:53:29;;;;;;;10.57;3.65;;;;;;;;;;4979819;28;20030;-70
2022/08/27 01:55:56;;;;;;;16.55;2.78;;;;;;;;;;4984580;28;20050;-71
2022/08/27 01:58:23;;;;;;;11.60;3.42;;;;;;;;;;4984559;28;20030;-70
2022/08/27 02:00:51;;;;;;;10.25;2.88;;;;;;;;;;4982400;28;20048;-72
2022/08/27 02:03:17;;;;;;;6.82;2.90;;;;;;;;;;4980336;28;20046;-72
2022/08/27 02:05:44;;;;;;;9.95;2.63;;;;;;;;;;4983748;28;20026;-71
2022/08/27 02:08:11;;;;;;;12.00;2.88;;;;;;;;;;4981201;28;20031;-72
2022/08/27 02:10:38;;;;;;;8.07;2.85;;;;;;;;;;4967428;28;20026;-71
2022/08/27 02:13:05;;;;;;;10.18;2.55;;;;;;;;;;4985721;28;20117;-72
2022/08/27 02:15:33;;;;;;;7.63;3.00;;;;;;;;;;4985663;28;20062;-71
2022/08/27 02:17:59;;;;;;;6.45;2.78;;;;;;;;;;4988328;28;20038;-71
2022/08/27 02:20:25;;;;;;;9.80;3.13;;;;;;;;;;4987341;28;20046;-71
2022/08/27 02:22:52;;;;;;;10.23;2.90;;;;;;;;;;4986227;28;20038;-70
2022/08/27 02:25:20;;;;;;;9.35;3.05;;;;;;;;;;4983921;28;20023;-70
2022/08/27 02:27:47;;;;;;;8.98;3.25;;;;;;;;;;4983900;28;20042;-71
2022/08/27 02:30:15;;;;;;;10.85;3.50;;;;;;;;;;4986127;28;20126;-72
2022/08/27 02:32:41;;;;;;;12.27;4.20;;;;;;;;;;4986692;28;20484;-71
2022/08/27 02:35:08;;;;;;;9.85;3.10;;;;;;;;;;4988215;28;20488;-71
2022/08/27 02:37:36;;;;;;;8.40;3.17;;;;;;;;;;4989114;28;20117;-72
2022/08/27 02:40:04;;;;;;;12.07;3.10;;;;;;;;;;4985300;28;20184;-72
2022/08/27 02:42:30;;;;;;;8.05;3.17;;;;;;;;;;4986269;28;20480;-72
2022/08/27 02:44:56;;;;;;;8.95;3.10;;;;;;;;;;4987874;28;20042;-72
2022/08/27 02:47:22;;;;;;;10.88;3.72;;;;;;;;;;4987836;28;20516;-71
2022/08/27 02:49:48;;;;;;;14.05;4.25;;;;;;;;;;4986837;28;20023;-71
2022/08/27 02:52:15;;;;;;;11.07;4.15;;;;;;;;;;4985400;28;20353;-72
2022/08/27 02:54:41;;;;;;;10.00;3.50;;;;;;;;;;4984672;28;20548;-74
2022/08/27 02:57:09;;;;;;;11.52;3.53;;;;;;;;;;4970586;28;20034;-73
2022/08/27 02:59:35;;;;;;;9.57;3.78;;;;;;;;;;4969660;28;20046;-72
2022/08/27 03:02:02;;;;;;;11.80;4.25;;;;;;;;;;4981007;28;20507;-71
2022/08/27 03:04:28;;;;;;;18.95;6.28;;;;;;;;;;4985864;28;20034;-70
2022/08/27 03:06:54;;;;;;;11.40;3.60;;;;;;;;;;4970399;28;20063;-71
2022/08/27 03:09:20;;;;;;;9.70;3.47;;;;;;;;;;4984874;28;20052;-71
2022/08/27 03:11:47;;;;;;;11.30;4.50;;;;;;;;;;4986590;28;20110;-71
2022/08/27 03:14:13;;;;;;;11.88;4.50;;;;;;;;;;4969667;28;20105;-71
2022/08/27 03:16:39;;;;;;;8.57;3.70;;;;;;;;;;4988556;28;20081;-71
2022/08/27 03:19:05;;;;;;;10.93;3.95;;;;;;;;;;4985604;28;20023;-71
2022/08/27 03:21:32;;;;;;;9.60;3.80;;;;;;;;;;4988316;28;20049;-72
2022/08/27 03:24:00;;;;;;;12.98;3.90;;;;;;;;;;4981683;28;20046;-72
2022/08/27 03:26:27;;;;;;;10.55;3.92;;;;;;;;;;4988708;28;20480;-72
2022/08/27 03:28:53;;;;;;;12.85;4.75;;;;;;;;;;4984270;28;20062;-72
2022/08/27 03:31:25;;;;;;;12.73;4.35;;;;;;;;;;4984302;28;20034;-71
2022/08/27 03:33:52;;;;;;;10.70;3.85;;;;;;;;;;4986891;28;20030;-73
2022/08/27 03:36:20;;;;;;;8.43;3.80;;;;;;;;;;4987165;28;20026;-73
2022/08/27 03:38:47;;;;;;;12.23;3.88;;;;;;;;;;4982418;28;20536;-75
2022/08/27 03:41:14;;;;;;;11.55;4.22;;;;;;;;;;4988668;28;20050;-72
2022/08/27 03:43:40;;;;;;;11.25;4.28;;;;;;;;;;4980123;28;20034;-73
2022/08/27 03:46:07;;;;;;;12.60;4.35;;;;;;;;;;4984557;28;20891;-70
2022/08/27 03:48:33;;;;;;;10.25;4.90;;;;;;;;;;4983489;28;20069;-73
2022/08/27 03:51:04;;;;;;;13.10;5.45;;;;;;;;;;4983739;28;20499;-72
2022/08/27 03:53:30;;;;;;;15.43;5.50;;;;;;;;;;4982233;28;20770;-72
2022/08/27 03:55:56;;;;;;;13.13;5.55;;;;;;;;;;4989145;28;20238;-74
2022/08/27 03:58:22;;;;;;;10.10;4.97;;;;;;;;;;4985242;28;21758;-72
2022/08/27 04:00:48;;;;;;;16.35;5.38;;;;;;;;;;4984736;28;20510;-72
2022/08/27 04:03:14;;;;;;;10.95;5.75;;;;;;;;;;4986759;28;20042;-72
2022/08/27 04:05:41;;;;;;;8.95;4.93;;;;;;;;;;4987251;28;20444;-72
2022/08/27 04:08:07;;;;;;;10.88;4.40;;;;;;;;;;4984926;28;20085;-71
2022/08/27 04:10:33;;;;;;;12.13;5.82;;;;;;;;;;4984512;28;20056;-70
2022/08/27 04:12:59;;;;;;;10.43;5.32;;;;;;;;;;4982469;28;20037;-70
2022/08/27 04:15:25;;;;;;;11.82;5.57;;;;;;;;;;4966203;28;20729;-72
2022/08/27 04:17:52;;;;;;;12.82;5.43;;;;;;;;;;4988502;28;20510;-71
2022/08/27 04:20:19;;;;;;;9.52;5.50;;;;;;;;;;4986626;28;20451;-71
2022/08/27 04:22:45;;;;;;;10.65;5.18;;;;;;;;;;4985094;28;20027;-71
2022/08/27 04:25:16;;;;;;;16.02;6.13;;;;;;;;;;4987283;28;20038;-71
2022/08/27 04:27:42;;;;;;;13.25;6.18;;;;;;;;;;4983782;28;20040;-72
2022/08/27 04:30:09;;;;;;;12.07;6.10;;;;;;;;;;4983834;28;20089;-71
2022/08/27 04:32:36;;;;;;;12.98;7.00;;;;;;;;;;4979876;28;20057;-71
2022/08/27 04:35:02;;;;;;;11.73;7.20;;;;;;;;;;4985377;28;20026;-71
2022/08/27 04:37:31;;;;;;;12.75;8.02;;;;;;;;;;4984395;28;20030;-71
2022/08/27 04:39:58;;;;;;;15.65;7.07;;;;;;;;;;4964149;28;20053;-71
2022/08/27 04:42:24;;;;;;;12.40;6.85;;;;;;;;;;4964509;28;20034;-73
2022/08/27 04:44:52;;;;;;;17.23;7.30;;;;;;;;;;4983202;28;20126;-75
2022/08/27 04:47:19;;;;;;;14.60;6.70;;;;;;;;;;4987914;28;20404;-71
2022/08/27 04:49:45;;;;;;;12.35;6.80;;;;;;;;;;4979963;28;20034;-72
2022/08/27 04:52:11;;;;;;;11.75;6.75;;;;;;;;;;4973742;28;20042;-73
2022/08/27 04:54:37;;;;;;;10.60;5.88;;;;;;;;;;4969346;28;20036;-73
2022/08/27 04:57:04;;;;;;;11.18;6.93;;;;;;;;;;4986050;28;20042;-72
2022/08/27 04:59:31;;;;;;;22.23;8.90;;;;;;;;;;4986142;28;20041;-72
2022/08/27 05:01:58;;;;;;;15.07;9.85;;;;;;;;;;4982723;28;20444;-72
2022/08/27 05:04:25;;;;;;;18.00;9.98;;;;;;;;;;4979653;28;20022;-72
2022/08/27 05:06:51;;;;;;;22.10;9.55;;;;;;;;;;4987111;28;20030;-70
2022/08/27 05:09:18;;;;;;;13.77;9.65;;;;;;;;;;4966042;28;20081;-71
2022/08/27 05:11:44;;;;;;;24.48;10.13;;;;;;;;;;4982207;28;20034;-72
2022/08/27 05:14:11;;;;;;;18.58;10.02;;;;;;;;;;4981296;28;20046;-71
2022/08/27 05:16:37;;;;;;;19.38;11.27;;;;;;;;;;4985822;28;20072;-71
2022/08/27 05:19:09;;;;;;;18.67;10.30;;;;;;;;;;4983555;28;20078;-72
2022/08/27 05:21:37;;;;;;;17.15;9.82;;;;;;;;;;4983596;28;20080;-73
2022/08/27 05:24:04;;;;;;;15.70;10.18;;;;;;;;;;4980822;28;20026;-71
2022/08/27 05:26:30;;;;;;;17.08;9.60;;;;;;;;;;4966941;28;20030;-72
2022/08/27 05:28:58;;;;;;;18.23;9.20;;;;;;;;;;4985230;28;20076;-72
2022/08/27 05:31:24;;;;;;;27.50;10.25;;;;;;;;;;4986673;28;20026;-70
2022/08/27 05:33:50;;;;;;;16.23;8.52;;;;;;;;;;4950572;28;20096;-71
2022/08/27 05:36:19;;;;;;;18.25;8.90;;;;;;;;;;4969658;28;20426;-71
2022/08/27 05:38:45;;;;;;;12.90;7.93;;;;;;;;;;4986274;28;20026;-69
2022/08/27 05:41:16;;;;;;;12.55;7.05;;;;;;;;;;4983852;28;20034;-70
2022/08/27 05:43:42;;;;;;;;;;;;;;;;;;4981330;28;20495;-69
2022/08/27 05:46:10;;;;;;;18.23;7.20;;;;;;;;;;4971284;28;19917;-70
2022/08/27 05:48:37;;;;;;;12.82;7.00;;;;;;;;;;4985736;28;20026;-71
2022/08/27 05:51:09;;;;;;;15.45;6.65;;;;;;;;;;4991327;28;20033;-72
2022/08/27 05:53:35;;;;;;;16.52;7.18;;;;;;;;;;4989353;28;20038;-72
2022/08/27 05:56:01;;;;;;;19.30;6.72;;;;;;;;;;4989347;28;20042;-72
2022/08/27 06:01:12;;;;;;;15.85;6.55;;;;;;;;;;4985413;28;20069;-72
2022/08/27 06:03:40;;;;;;;13.93;6.07;;;;;;;;;;4985722;28;20034;-71
2022/08/27 06:06:09;;;;;;;11.95;6.57;;;;;;;;;;4989359;28;20042;-72
2022/08/27 06:08:36;;;;;;;11.90;6.05;;;;;;;;;;4986481;28;20034;-70
2022/08/27 06:11:04;;;;;;;10.23;5.47;;;;;;;;;;4983323;28;20712;-71
2022/08/27 06:13:31;;;;;;;14.60;5.60;;;;;;;;;;4985538;28;20469;-72
2022/08/27 06:16:07;;;;;;;11.43;5.10;;;;;;;;;;4989890;28;20058;-72
2022/08/27 06:18:34;;;;;;;15.75;5.45;;;;;;;;;;4985345;28;20042;-73
2022/08/27 06:21:00;;;;;;;12.60;4.93;;;;;;;;;;4984897;28;20043;-72
2022/08/27 06:23:26;;;;;;;11.50;5.45;;;;;;;;;;4984799;28;20125;-72
2022/08/27 06:25:52;;;;;;;14.10;5.03;;;;;;;;;;4985569;28;20523;-71
2022/08/27 06:28:22;;;;;;;12.07;4.95;;;;;;;;;;4980983;28;20030;-71
2022/08/27 06:30:48;;;;;;;11.82;4.68;;;;;;;;;;4983706;28;20027;-71
2022/08/27 06:33:14;;;;;;;11.52;4.50;;;;;;;;;;4986604;28;20038;-71
2022/08/27 06:35:40;;;;;;;12.00;4.70;;;;;;;;;;4982826;28;20037;-71
2022/08/27 06:38:06;;;;;;;10.75;5.75;;;;;;;;;;4990729;28;20038;-72
2022/08/27 06:40:33;;;;;;;10.30;4.03;;;;;;;;;;4984068;28;20042;-71
2022/08/27 06:42:59;;;;;;;9.80;3.80;;;;;;;;;;4986674;28;20515;-71
2022/08/27 06:45:25;;;;;;;14.23;4.35;;;;;;;;;;4991607;28;20038;-72
2022/08/27 06:47:51;;;;;;;13.90;4.47;;;;;;;;;;4988401;28;20051;-72
2022/08/27 06:50:19;;;;;;;13.07;4.05;;;;;;;;;;4985155;28;20465;-71
2022/08/27 06:52:46;;;;;;;7.40;3.42;;;;;;;;;;4970205;28;20136;-71
2022/08/27 06:55:12;;;;;;;8.10;3.60;;;;;;;;;;4989201;28;20034;-71
2022/08/27 06:57:38;;;;;;;11.63;3.47;;;;;;;;;;4989691;28;20154;-69
2022/08/27 07:00:06;;;;;;;7.68;3.33;;;;;;;;;;4977131;28;20063;-70
2022/08/27 07:02:32;;;;;;;15.73;3.38;;;;;;;;;;4988722;28;20034;-70
2022/08/27 07:04:59;;;;;;;21.20;10.00;;;;;;;;;;4989523;28;20104;-70
2022/08/27 07:07:25;;;;;;;12.77;3.90;;;;;;;;;;4987413;28;20034;-70
2022/08/27 07:09:51;;;;;;;28.52;4.45;;;;;;;;;;4988604;28;20093;-71
2022/08/27 07:12:17;;;;;;;18.45;4.30;;;;;;;;;;4992699;28;20038;-71
2022/08/27 07:14:43;;;;;;;9.70;3.60;;;;;;;;;;4989573;28;20105;-70
2022/08/27 07:17:09;;;;;;;13.93;4.60;;;;;;;;;;4959581;28;20491;-71
2022/08/27 07:19:37;;;;;;;11.85;4.45;;;;;;;;;;4974353;28;20030;-70
2022/08/27 07:22:03;;;;;;;13.45;3.90;;;;;;;;;;4978340;28;20031;-70
2022/08/27 07:24:29;;;;;;;10.43;4.07;;;;;;;;;;4989402;28;20460;-70
2022/08/27 07:26:56;;;;;;;8.60;3.92;;;;;;;;;;4985478;28;20061;-70
2022/08/27 07:29:22;;;;;;;9.40;3.53;;;;;;;;;;4986677;28;20042;-70
2022/08/27 07:31:48;;;;;;;11.75;3.33;;;;;;;;;;4987155;28;20046;-70
2022/08/27 07:34:14;;;;;;;9.30;3.42;;;;;;;;;;4972746;28;20042;-70
2022/08/27 07:36:40;;;;;;;13.27;3.30;;;;;;;;;;4988800;28;20113;-71
2022/08/27 07:39:06;;;;;;;12.32;3.65;;;;;;;;;;4984736;28;20022;-70
2022/08/27 07:44:23;;;;;;;6.20;3.10;;;;;;;;;;4989998;28;20022;-69
2022/08/27 07:44:25;;;;;;;12.98;4.13;;;;;;;;;;4985179;28;20030;-71
2022/08/27 07:46:52;;;;;;;14.45;4.40;;;;;;;;;;4989903;28;20053;-69
2022/08/27 07:49:18;;;;;;;11.20;3.13;;;;;;;;;;4986759;28;20062;-70
2022/08/27 07:51:44;;;;;;;8.80;3.42;;;;;;;;;;4987989;28;20057;-70
2022/08/27 07:54:10;;;;;;;8.25;3.33;;;;;;;;;;4987918;28;20066;-71
2022/08/27 07:56:36;;;;;;;14.07;3.08;;;;;;;;;;4973668;28;20121;-71
2022/08/27 07:59:02;;;;;;;10.18;3.40;;;;;;;;;;4987214;28;20172;-72
2022/08/27 08:01:28;;;;;;;12.27;3.88;;;;;;;;;;4984347;28;20025;-71
2022/08/27 08:03:55;;;;;;;12.95;3.70;;;;;;;;;;4987914;28;20109;-71
2022/08/27 08:06:21;;;;;;;12.07;3.50;;;;;;;;;;4988169;28;20034;-71
2022/08/27 08:08:47;;;;;;;7.43;3.53;;;;;;;;;;4987378;28;20030;-71
2022/08/27 08:11:15;;;;;;;10.02;3.97;;;;;;;;;;4987032;28;20065;-72
2022/08/27 08:13:42;;;;;;;10.38;3.72;;;;;;;;;;4986948;28;20026;-70
2022/08/27 08:16:08;;;;;;;13.23;3.60;;;;;;;;;;4964116;28;20038;-71
2022/08/27 08:18:35;;;;;;;7.40;3.50;;;;;;;;;;4988585;28;20084;-69
2022/08/27 08:21:03;;;;;;;11.55;4.45;;;;;;;;;;4987002;28;20042;-69
2022/08/27 08:23:29;;;;;;;16.60;4.00;;;;;;;;;;4989546;28;20018;-71
2022/08/27 08:25:56;;;;;;;11.23;3.92;;;;;;;;;;4987061;28;20231;-70
2022/08/27 08:28:22;;;;;;;12.90;4.18;;;;;;;;;;4981507;28;20034;-69
2022/08/27 08:30:48;;;;;;;15.70;4.28;;;;;;;;;;4970565;28;20041;-69
2022/08/27 08:33:15;;;;;;;9.23;4.15;;;;;;;;;;4989112;28;20030;-70
2022/08/27 08:35:42;;;;;;;15.52;3.75;;;;;;;;;;4969109;28;20124;-70
2022/08/27 08:38:08;;;;;;;11.15;3.67;;;;;;;;;;4988646;28;20034;-71
2022/08/27 08:40:36;;;;;;;9.40;3.67;;;;;;;;;;4970218;28;20125;-71
2022/08/27 08:43:04;;;;;;;23.77;4.68;;;;;;;;;;4987689;28;20036;-70
2022/08/27 08:45:33;;;;;;;14.45;3.45;;;;;;;;;;4986254;28;20019;-71
2022/08/27 08:48:04;;;;;;;8.75;3.30;;;;;;;;;;4989756;28;20042;-71
2022/08/27 08:50:38;;;;;;;7.53;3.05;;;;;;;;;;4969840;28;20049;-71
2022/08/27 08:53:07;;;;;;;13.98;3.50;;;;;;;;;;4990051;28;20116;-71
2022/08/27 08:55:51;;;;;;;12.27;3.00;;;;;;;;;;4986273;28;20030;-71
2022/08/27 08:58:29;;;;;;;10.35;3.45;;;;;;;;;;4972404;28;20518;-71
2022/08/27 09:00:59;;;;;;;11.88;3.50;;;;;;;;;;4986102;28;20510;-70
2022/08/27 09:03:26;;;;;;;16.33;3.17;;;;;;;;;;4989276;28;20535;-71
2022/08/27 09:06:01;;;;;;;12.30;2.83;;;;;;;;;;4986740;28;20033;-70
2022/08/27 09:08:32;;;;;;;15.27;2.88;;;;;;;;;;4977465;28;20134;-70
2022/08/27 09:11:05;;;;;;;7.68;2.70;;;;;;;;;;4987563;28;20503;-72
2022/08/27 09:13:34;;;;;;;9.93;3.35;;;;;;;;;;4989029;28;20034;-71
2022/08/27 09:16:01;;;;;;;7.28;2.78;;;;;;;;;;4986968;28;20121;-71
2022/08/27 09:18:28;;;;;;;8.90;3.25;;;;;;;;;;4986630;28;20030;-71
2022/08/27 09:21:03;;;;;;;10.18;2.67;;;;;;;;;;4990050;28;20176;-69
2022/08/27 09:23:58;;;;;;;7.97;2.63;;;;;;;;;;4969255;28;20077;-72
2022/08/27 09:26:27;;;;;;;7.05;2.42;;;;;;;;;;4890739;28;20048;-69
2022/08/27 09:29:15;;;;;;;7.80;2.28;;;;;;;;;;4987991;28;20065;-73
2022/08/27 09:31:46;;;;;;;5.70;2.05;;;;;;;;;;4990467;28;20125;-72
2022/08/27 09:34:14;;;;;;;7.75;2.50;;;;;;;;;;4970444;28;20397;-72
2022/08/27 09:36:51;;;;;;;11.88;2.55;;;;;;;;;;4991461;28;20507;-73
2022/08/27 09:39:18;;;;;;;9.57;2.55;;;;;;;;;;4989818;28;20496;-72
2022/08/27 09:41:46;;;;;;;10.13;2.60;;;;;;;;;;4989133;28;20033;-72
2022/08/27 09:44:15;;;;;;;6.55;2.00;;;;;;;;;;4987368;28;21199;-71
2022/08/27 09:46:51;;;;;;;9.88;2.13;;;;;;;;;;4985519;28;20062;-72
2022/08/27 09:49:17;;;;;;;7.47;2.15;;;;;;;;;;4989825;28;20145;-71
2022/08/27 09:51:45;;;;;;;10.27;2.55;;;;;;;;;;4974260;28;20069;-71
2022/08/27 09:54:11;;;;;;;9.85;2.15;;;;;;;;;;4990822;28;20107;-71
2022/08/27 09:56:48;;;;;;;11.88;2.53;;;;;;;;;;4990325;28;20030;-72
2022/08/27 09:59:32;;;;;;;6.47;1.98;;;;;;;;;;4985018;28;20070;-72
2022/08/27 10:02:03;;;;;;;11.40;1.90;;;;;;;;;;4986965;28;20026;-72
2022/08/27 10:04:37;;;;;;;6.47;1.67;;;;;;;;;;4989300;28;20535;-72
2022/08/27 10:07:22;;;;;;;9.98;2.08;;;;;;;;;;4970479;28;20023;-72
2022/08/27 10:09:52;;;;;;;8.90;1.98;;;;;;;;;;4987417;28;20030;-73
2022/08/27 10:12:45;;;;;;;8.55;1.70;;;;;;;;;;4982098;28;20030;-72
2022/08/27 10:15:13;;;;;;;9.40;1.80;;;;;;;;;;4944330;28;20039;-72
2022/08/27 10:17:42;;;;;;;8.48;2.25;;;;;;;;;;4982634;28;20034;-72
2022/08/27 10:20:17;;;;;;;7.80;1.92;;;;;;;;;;4988121;28;20026;-72
2022/08/27 10:22:55;;;;;;;10.10;1.70;;;;;;;;;;4983399;28;20018;-72
2022/08/27 10:25:25;;;;;;;8.00;1.85;;;;;;;;;;4982785;28;20042;-73
2022/08/27 10:28:09;;;;;;;6.18;1.70;;;;;;;;;;4978586;28;20083;-72
2022/08/27 10:30:38;;;;;;;7.68;1.88;;;;;;;;;;4989128;28;20033;-72
2022/08/27 10:33:07;;;;;;;6.60;1.60;;;;;;;;;;4989094;28;20173;-73
2022/08/27 10:35:47;;;;;;;7.10;1.67;;;;;;;;;;4988991;28;20047;-72
2022/08/27 10:38:17;;;;;;;6.10;1.73;;;;;;;;;;4993018;28;20038;-71
2022/08/27 10:40:49;;;;;;;7.28;1.63;;;;;;;;;;4993908;28;20027;-72
2022/08/27 10:43:24;;;;;;;5.13;1.58;;;;;;;;;;4973021;28;20105;-73
2022/08/27 10:45:54;;;;;;;6.15;1.90;;;;;;;;;;4989456;28;20121;-71
2022/08/27 10:48:28;;;;;;;13.30;1.80;;;;;;;;;;4991171;28;20076;-72
2022/08/27 10:51:01;;;;;;;7.28;1.77;;;;;;;;;;4980995;28;20564;-71
2022/08/27 10:53:30;;;;;;;6.13;2.13;;;;;;;;;;4981768;28;20084;-70
2022/08/27 10:56:08;;;;;;;11.27;2.00;;;;;;;;;;4989832;28;20034;-71
2022/08/27 10:58:34;;;;;;;10.05;1.85;;;;;;;;;;4990035;28;20471;-71
2022/08/27 11:01:04;;;;;;;12.88;2.00;;;;;;;;;;4987741;28;20126;-72
2022/08/27 11:03:39;;;;;;;9.43;1.70;;;;;;;;;;4990729;28;20018;-72
2022/08/27 11:06:12;;;;;;;8.40;1.73;;;;;;;;;;4987932;28;20440;-72
2022/08/27 11:08:40;;;;;;;7.38;1.80;;;;;;;;;;4991575;28;20038;-71
2022/08/27 11:11:12;;;;;;;8.10;1.80;;;;;;;;;;4990516;28;20034;-71
2022/08/27 11:13:46;;;;;;;9.88;1.98;;;;;;;;;;4969954;28;20204;-73
2022/08/27 11:16:15;;;;;;;6.68;1.83;;;;;;;;;;4991829;28;20031;-72
2022/08/27 11:18:44;;;;;;;8.43;2.10;;;;;;;;;;4989357;28;20097;-72
2022/08/27 11:21:19;;;;;;;9.02;1.42;;;;;;;;;;4989423;28;20364;-70
2022/08/27 11:23:45;;;;;;;9.82;1.83;;;;;;;;;;4990005;28;20601;-71
2022/08/27 11:26:12;;;;;;;11.65;1.73;;;;;;;;;;4989255;28;20387;-72
2022/08/27 11:28:38;;;;;;;11.43;2.20;;;;;;;;;;4990744;28;20117;-71
2022/08/27 11:31:04;;;;;;;9.73;2.25;;;;;;;;;;4988364;28;20034;-72
2022/08/27 11:33:55;;;;;;;8.10;2.17;;;;;;;;;;4987601;28;20109;-72
2022/08/27 11:36:39;;;;;;;10.43;1.70;;;;;;;;;;4977035;28;20084;-71
2022/08/27 11:39:06;;;;;;;5.88;1.58;;;;;;;;;;4985282;28;20030;-71
2022/08/27 11:41:41;;;;;;;8.93;1.73;;;;;;;;;;4989446;28;20029;-70
2022/08/27 11:44:08;;;;;;;7.25;1.73;;;;;;;;;;4988610;28;20026;-70
2022/08/27 11:46:45;;;;;;;11.98;2.03;;;;;;;;;;4974253;28;20653;-71
2022/08/27 11:49:11;;;;;;;9.05;1.80;;;;;;;;;;4988492;28;20520;-71
2022/08/27 11:51:39;;;;;;;7.25;1.70;;;;;;;;;;4989544;28;20440;-71
2022/08/27 11:54:06;;;;;;;11.60;1.60;;;;;;;;;;4983933;28;20034;-70
2022/08/27 11:56:35;;;;;;;7.53;1.70;;;;;;;;;;4992226;28;20026;-70
2022/08/27 11:59:20;;;;;;;7.40;1.70;;;;;;;;;;4987575;28;20182;-72
2022/08/27 12:01:47;;;;;;;7.10;1.42;;;;;;;;;;4990565;28;20031;-71
2022/08/27 12:04:19;;;;;;;11.57;2.05;;;;;;;;;;4989399;28;20109;-71
2022/08/27 12:06:50;;;;;;;8.43;1.70;;;;;;;;;;4990848;28;20527;-70
2022/08/27 12:09:21;;;;;;;6.75;1.58;;;;;;;;;;4987933;28;20034;-70
2022/08/27 12:11:59;;;;;;;5.45;1.60;;;;;;;;;;4989057;28;20022;-70
2022/08/27 12:14:38;;;;;;;6.25;1.50;;;;;;;;;;4989835;28;20030;-70
2022/08/27 12:17:10;;;;;;;5.80;1.50;;;;;;;;;;4989331;28;20041;-71
2022/08/27 12:19:55;;;;;;;7.68;1.30;;;;;;;;;;4990106;28;20085;-71
2022/08/27 12:22:22;;;;;;;9.57;1.92;;;;;;;;;;4989526;28;20022;-70
2022/08/27 12:24:49;;;;;;;4.57;1.42;;;;;;;;;;4986412;28;20029;-70
2022/08/27 12:27:25;;;;;;;5.60;1.50;;;;;;;;;;4984866;28;20037;-70
2022/08/27 12:29:53;;;;;;;6.72;1.55;;;;;;;;;;4985898;28;20321;-70
2022/08/27 12:32:19;;;;;;;11.38;1.60;;;;;;;;;;4989918;28;20061;-70
2022/08/27 12:34:52;;;;;;;11.68;1.90;;;;;;;;;;4985901;28;20097;-70
2022/08/27 12:37:21;;;;;;;7.47;1.60;;;;;;;;;;4989640;28;20034;-70
2022/08/27 12:39:48;;;;;;;8.38;1.92;;;;;;;;;;4982758;28;20030;-70
2022/08/27 12:42:17;;;;;;;7.25;1.65;;;;;;;;;;4988758;28;20034;-70
2022/08/27 12:44:44;;;;;;;8.20;1.83;;;;;;;;;;4987700;28;20029;-69
2022/08/27 12:47:14;;;;;;;6.05;1.50;;;;;;;;;;4992594;28;20050;-70
2022/08/27 12:49:44;;;;;;;4.78;1.58;;;;;;;;;;4990570;28;20514;-71
2022/08/27 12:52:17;;;;;;;9.32;1.75;;;;;;;;;;4990139;28;20041;-71
2022/08/27 12:54:53;;;;;;;4.95;1.20;;;;;;;;;;4983980;28;20034;-71
2022/08/27 12:57:46;;;;;;;5.72;1.60;;;;;;;;;;4984574;28;20042;-70
2022/08/27 13:00:14;;;;;;;6.43;1.40;;;;;;;;;;4985648;28;20042;-71
2022/08/27 13:02:52;;;;;;;5.55;1.20;;;;;;;;;;4983980;28;20456;-70
2022/08/27 13:05:20;;;;;;;7.40;1.83;;;;;;;;;;4985573;28;20034;-71
2022/08/27 13:07:47;;;;;;;8.82;1.65;;;;;;;;;;4979090;28;20039;-71
2022/08/27 13:10:17;;;;;;;10.13;1.48;;;;;;;;;;4986444;28;20052;-72
2022/08/27 13:12:44;;;;;;;9.68;1.60;;;;;;;;;;4988460;28;20069;-71
2022/08/27 13:15:12;;;;;;;4.85;1.50;;;;;;;;;;4985653;28;20030;-71
2022/08/27 13:17:42;;;;;;;9.25;1.63;;;;;;;;;;4988136;28;20097;-71
2022/08/27 13:20:26;;;;;;;6.20;1.88;;;;;;;;;;4986422;28;20077;-70
2022/08/27 13:22:53;;;;;;;4.13;1.50;;;;;;;;;;4969008;28;20050;-73
2022/08/27 13:25:31;;;;;;;5.03;1.52;;;;;;;;;;4976553;28;20062;-71
2022/08/27 13:28:06;;;;;;;8.60;1.50;;;;;;;;;;4986771;28;20069;-71
2022/08/27 13:30:41;;;;;;;9.32;1.85;;;;;;;;;;4985503;28;20034;-71
2022/08/27 13:33:08;;;;;;;5.05;1.50;;;;;;;;;;4981663;28;20026;-71
2022/08/27 13:35:34;;;;;;;8.07;1.63;;;;;;;;;;4986786;28;20118;-71
2022/08/27 13:38:02;;;;;;;8.68;1.50;;;;;;;;;;4977187;28;20570;-70
2022/08/27 13:40:29;;;;;;;7.00;1.80;;;;;;;;;;4969745;28;20399;-71
2022/08/27 13:42:57;;;;;;;8.05;1.70;;;;;;;;;;4985223;28;20033;-71
2022/08/27 13:45:23;;;;;;;9.32;1.73;;;;;;;;;;4982550;28;20037;-71
2022/08/27 13:47:49;;;;;;;8.00;1.38;;;;;;;;;;4979130;28;20069;-70
2022/08/27 13:50:18;;;;;;;8.57;1.60;;;;;;;;;;4986995;28;20031;-70
2022/08/27 13:55:29;;;;;;;9.10;1.85;;;;;;;;;;4989448;28;20101;-70
2022/08/27 13:57:56;;;;;;;13.43;2.22;;;;;;;;;;4957762;28;20035;-71
2022/08/27 14:00:26;;;;;;;9.07;1.20;;;;;;;;;;4988306;28;20073;-71
2022/08/27 14:02:52;;;;;;;6.47;1.08;;;;;;;;;;4985096;28;20081;-71
2022/08/27 14:05:26;;;;;;;9.68;1.63;;;;;;;;;;4985425;28;20035;-71
2022/08/27 14:07:59;;;;;;;6.97;1.33;;;;;;;;;;4990680;28;20057;-71
2022/08/27 14:10:25;;;;;;;11.60;1.52;;;;;;;;;;4988000;28;20027;-71
2022/08/27 14:12:56;;;;;;;5.30;1.42;;;;;;;;;;4989993;28;20044;-71
2022/08/27 14:15:22;;;;;;;;;;;;;;;;;;4989024;28;20073;-70
2022/08/27 14:17:48;;;;;;;6.15;1.35;;;;;;;;;;4975842;28;19914;-71
2022/08/27 14:20:15;;;;;;;7.00;1.45;;;;;;;;;;4991001;28;20408;-70
2022/08/27 14:22:42;;;;;;;9.18;1.40;;;;;;;;;;4985313;28;20359;-70
2022/08/27 14:25:08;;;;;;;8.00;1.75;;;;;;;;;;4991172;28;20121;-70
2022/08/27 14:27:39;;;;;;;9.82;1.50;;;;;;;;;;4972100;28;20039;-70
2022/08/27 14:30:07;;;;;;;9.15;1.88;;;;;;;;;;4988772;28;20081;-70
2022/08/27 14:32:33;;;;;;;10.45;1.48;;;;;;;;;;4987993;28;20145;-70
2022/08/27 14:34:59;;;;;;;8.85;1.50;;;;;;;;;;4978923;28;20046;-70
2022/08/27 14:37:25;;;;;;;4.38;1.00;;;;;;;;;;4989730;28;20038;-71
2022/08/27 14:39:51;;;;;;;4.32;1.05;;;;;;;;;;4984705;28;20430;-70
2022/08/27 14:42:17;;;;;;;11.80;1.73;;;;;;;;;;4966450;28;20038;-69
2022/08/27 14:44:43;;;;;;;6.80;1.45;;;;;;;;;;4990002;28;20026;-69
2022/08/27 14:47:10;;;;;;;9.38;1.40;;;;;;;;;;4974066;28;20051;-71
2022/08/27 14:49:38;;;;;;;7.40;1.42;;;;;;;;;;4978820;28;20037;-70
2022/08/27 14:52:07;;;;;;;7.57;1.13;;;;;;;;;;4985760;28;20038;-70